sensor_id;sensor_type;location;lat;lon;timestamp;pressure;altitude;pressure_sealevel;temperature;humidity
66857;BME280;53766;50.280;19.160;2023-04-06T00:02:23;98804.44;;;16.31;40.23
66857;BME280;53766;50.280;19.160;2023-04-06T00:04:50;98813.41;;;16.30;40.35
66857;BME280;53766;50.280;19.160;2023-04-06T00:07:18;98806.44;;;16.29;40.17
66857;BME280;53766;50.280;19.160;2023-04-06T00:09:45;98812.59;;;16.30;40.25
66857;BME280;53766;50.280;19.160;2023-04-06T00:12:12;98807.28;;;16.30;40.45
66857;BME280;53766;50.280;19.160;2023-04-06T00:14:40;98810.09;;;16.28;40.26
66857;BME280;53766;50.280;19.160;2023-04-06T00:17:07;98815.41;;;16.28;40.25
66857;BME280;53766;50.280;19.160;2023-04-06T00:19:35;98812.13;;;16.26;40.31
66857;BME280;53766;50.280;19.160;2023-04-06T00:22:02;98813.78;;;16.27;40.28
66857;BME280;53766;50.280;19.160;2023-04-06T00:24:30;98809.28;;;16.28;40.32
66857;BME280;53766;50.280;19.160;2023-04-06T00:26:57;98810.47;;;16.25;40.46
66857;BME280;53766;50.280;19.160;2023-04-06T00:29:25;98812.97;;;16.27;40.19
66857;BME280;53766;50.280;19.160;2023-04-06T00:31:52;98795.34;;;16.25;40.31
66857;BME280;53766;50.280;19.160;2023-04-06T00:34:20;98797.19;;;16.25;40.30
66857;BME280;53766;50.280;19.160;2023-04-06T00:36:48;98799.84;;;16.25;40.44
66857;BME280;53766;50.280;19.160;2023-04-06T00:39:16;98794.53;;;16.25;40.34
66857;BME280;53766;50.280;19.160;2023-04-06T00:41:51;98793.72;;;16.24;40.25
66857;BME280;53766;50.280;19.160;2023-04-06T00:44:19;98797.19;;;16.25;40.05
66857;BME280;53766;50.280;19.160;2023-04-06T00:46:48;98790.19;;;16.24;40.29
66857;BME280;53766;50.280;19.160;2023-04-06T00:49:16;98793.72;;;16.24;40.38
66857;BME280;53766;50.280;19.160;2023-04-06T00:51:44;98794.53;;;16.25;40.21
66857;BME280;53766;50.280;19.160;2023-04-06T00:54:12;98791.22;;;16.23;40.37
66857;BME280;53766;50.280;19.160;2023-04-06T00:56:41;98790.19;;;16.24;40.18
66857;BME280;53766;50.280;19.160;2023-04-06T00:59:10;98792.88;;;16.24;40.28
66857;BME280;53766;50.280;19.160;2023-04-06T01:01:38;98788.56;;;16.23;40.23
66857;BME280;53766;50.280;19.160;2023-04-06T01:04:05;98785.91;;;16.23;40.36
66857;BME280;53766;50.280;19.160;2023-04-06T01:06:33;98789.38;;;16.23;40.29
66857;BME280;53766;50.280;19.160;2023-04-06T01:09:00;98791.22;;;16.23;40.39
66857;BME280;53766;50.280;19.160;2023-04-06T01:11:28;98786.91;;;16.22;40.33
66857;BME280;53766;50.280;19.160;2023-04-06T01:13:55;98785.25;;;16.21;40.27
66857;BME280;53766;50.280;19.160;2023-04-06T01:16:23;98788.75;;;16.21;40.50
66857;BME280;53766;50.280;19.160;2023-04-06T01:18:51;98777.28;;;16.21;40.21
66857;BME280;53766;50.280;19.160;2023-04-06T01:21:19;98786.09;;;16.21;40.37
66857;BME280;53766;50.280;19.160;2023-04-06T01:23:47;98787.09;;;16.20;40.42
66857;BME280;53766;50.280;19.160;2023-04-06T01:26:14;98787.09;;;16.20;40.33
66857;BME280;53766;50.280;19.160;2023-04-06T01:28:42;98784.63;;;16.19;40.43
66857;BME280;53766;50.280;19.160;2023-04-06T01:31:11;98784.63;;;16.19;40.56
66857;BME280;53766;50.280;19.160;2023-04-06T01:33:39;98788.28;;;16.18;40.36
66857;BME280;53766;50.280;19.160;2023-04-06T01:36:07;98784.63;;;16.19;40.31
66857;BME280;53766;50.280;19.160;2023-04-06T01:38:34;98788.28;;;16.18;40.30
66857;BME280;53766;50.280;19.160;2023-04-06T01:41:03;98783.97;;;16.17;40.31
66857;BME280;53766;50.280;19.160;2023-04-06T01:43:31;98778.66;;;16.17;40.36
66857;BME280;53766;50.280;19.160;2023-04-06T01:45:58;98777.66;;;16.18;40.31
66857;BME280;53766;50.280;19.160;2023-04-06T01:48:27;98782.34;;;16.16;40.26
66857;BME280;53766;50.280;19.160;2023-04-06T01:50:55;98774.38;;;16.16;40.25
66857;BME280;53766;50.280;19.160;2023-04-06T01:53:22;98779.69;;;16.16;40.34
66857;BME280;53766;50.280;19.160;2023-04-06T01:55:50;98783.31;;;16.15;40.24
66857;BME280;53766;50.280;19.160;2023-04-06T01:58:17;98779.69;;;16.16;40.28
66857;BME280;53766;50.280;19.160;2023-04-06T02:00:45;98773.50;;;16.15;40.15
66857;BME280;53766;50.280;19.160;2023-04-06T02:03:12;98774.38;;;16.16;40.18
66857;BME280;53766;50.280;19.160;2023-04-06T02:05:42;98772.69;;;16.15;40.20
66857;BME280;53766;50.280;19.160;2023-04-06T02:08:09;98778.00;;;16.15;40.09
66857;BME280;53766;50.280;19.160;2023-04-06T02:10:36;98780.03;;;16.13;40.16
66857;BME280;53766;50.280;19.160;2023-04-06T02:13:04;98773.06;;;16.12;40.23
66857;BME280;53766;50.280;19.160;2023-04-06T02:15:32;98779.19;;;16.12;40.19
66857;BME280;53766;50.280;19.160;2023-04-06T02:17:59;98773.88;;;16.12;39.89
66857;BME280;53766;50.280;19.160;2023-04-06T02:20:27;98766.09;;;16.11;40.13
66857;BME280;53766;50.280;19.160;2023-04-06T02:22:58;98766.91;;;16.11;40.14
66857;BME280;53766;50.280;19.160;2023-04-06T02:25:26;98775.72;;;16.12;39.93
66857;BME280;53766;50.280;19.160;2023-04-06T02:27:54;98771.22;;;16.12;39.75
66857;BME280;53766;50.280;19.160;2023-04-06T02:30:22;98768.09;;;16.09;40.07
66857;BME280;53766;50.280;19.160;2023-04-06T02:32:49;98765.44;;;16.09;39.94
66857;BME280;53766;50.280;19.160;2023-04-06T02:35:17;98775.06;;;16.10;39.93
66857;BME280;53766;50.280;19.160;2023-04-06T02:37:45;98768.09;;;16.09;39.87
66857;BME280;53766;50.280;19.160;2023-04-06T02:40:13;98766.47;;;16.08;39.80
66857;BME280;53766;50.280;19.160;2023-04-06T02:42:41;98769.13;;;16.08;39.92
66857;BME280;53766;50.280;19.160;2023-04-06T02:45:09;98764.78;;;16.07;39.85
66857;BME280;53766;50.280;19.160;2023-04-06T02:47:36;98769.13;;;16.08;39.90
66857;BME280;53766;50.280;19.160;2023-04-06T02:50:04;98770.09;;;16.07;39.91
66857;BME280;53766;50.280;19.160;2023-04-06T02:52:32;98768.47;;;16.06;39.84
66857;BME280;53766;50.280;19.160;2023-04-06T02:55:00;98770.09;;;16.07;39.70
66857;BME280;53766;50.280;19.160;2023-04-06T02:57:27;98770.09;;;16.07;39.58
66857;BME280;53766;50.280;19.160;2023-04-06T02:59:54;98773.78;;;16.06;39.81
66857;BME280;53766;50.280;19.160;2023-04-06T03:02:22;98772.97;;;16.05;39.86
66857;BME280;53766;50.280;19.160;2023-04-06T03:04:50;98779.09;;;16.06;39.87
66857;BME280;53766;50.280;19.160;2023-04-06T03:07:17;98787.25;;;16.04;39.86
66857;BME280;53766;50.280;19.160;2023-04-06T03:09:44;98775.78;;;16.03;39.64
66857;BME280;53766;50.280;19.160;2023-04-06T03:12:12;98779.44;;;16.02;39.59
66857;BME280;53766;50.280;19.160;2023-04-06T03:14:39;98773.31;;;16.02;39.78
66857;BME280;53766;50.280;19.160;2023-04-06T03:17:07;98779.44;;;16.02;39.73
66857;BME280;53766;50.280;19.160;2023-04-06T03:19:34;98788.44;;;16.01;39.51
66857;BME280;53766;50.280;19.160;2023-04-06T03:22:02;98781.47;;;16.00;39.76
66857;BME280;53766;50.280;19.160;2023-04-06T03:24:30;98781.47;;;16.00;39.58
66857;BME280;53766;50.280;19.160;2023-04-06T03:26:57;98785.94;;;16.00;39.72
66857;BME280;53766;50.280;19.160;2023-04-06T03:29:24;98781.47;;;16.00;39.58
66857;BME280;53766;50.280;19.160;2023-04-06T03:31:52;98779.81;;;15.99;39.60
66857;BME280;53766;50.280;19.160;2023-04-06T03:34:19;98774.50;;;15.99;39.58
66857;BME280;53766;50.280;19.160;2023-04-06T03:36:47;98780.84;;;15.98;39.42
66857;BME280;53766;50.280;19.160;2023-04-06T03:39:25;98775.53;;;15.98;39.65
66857;BME280;53766;50.280;19.160;2023-04-06T03:41:53;98779.16;;;15.97;39.56
66857;BME280;53766;50.280;19.160;2023-04-06T03:44:21;98779.16;;;15.97;39.57
66857;BME280;53766;50.280;19.160;2023-04-06T03:46:48;98792.44;;;15.97;39.52
66857;BME280;53766;50.280;19.160;2023-04-06T03:49:16;98787.13;;;15.97;39.34
66857;BME280;53766;50.280;19.160;2023-04-06T03:51:43;98789.78;;;15.97;39.35
66857;BME280;53766;50.280;19.160;2023-04-06T03:54:10;98790.97;;;15.95;39.54
66857;BME280;53766;50.280;19.160;2023-04-06T03:56:38;98797.13;;;15.95;39.57
66857;BME280;53766;50.280;19.160;2023-04-06T03:59:05;98785.50;;;15.96;39.30
66857;BME280;53766;50.280;19.160;2023-04-06T04:01:33;98790.16;;;15.94;39.44
66857;BME280;53766;50.280;19.160;2023-04-06T04:04:01;98794.47;;;15.95;39.38
66857;BME280;53766;50.280;19.160;2023-04-06T04:06:29;98785.84;;;15.93;39.38
66857;BME280;53766;50.280;19.160;2023-04-06T04:08:57;98785.84;;;15.93;39.32
66857;BME280;53766;50.280;19.160;2023-04-06T04:11:24;98784.19;;;15.92;39.53
66857;BME280;53766;50.280;19.160;2023-04-06T04:13:53;98791.16;;;15.93;39.26
66857;BME280;53766;50.280;19.160;2023-04-06T04:16:20;98784.38;;;15.91;39.37
66857;BME280;53766;50.280;19.160;2023-04-06T04:18:48;98782.53;;;15.91;39.58
66857;BME280;53766;50.280;19.160;2023-04-06T04:21:16;98787.03;;;15.91;39.56
66857;BME280;53766;50.280;19.160;2023-04-06T04:23:43;98788.88;;;15.90;39.74
66857;BME280;53766;50.280;19.160;2023-04-06T04:26:10;98790.72;;;15.90;39.96
66857;BME280;53766;50.280;19.160;2023-04-06T04:28:38;98789.03;;;15.89;39.97
66857;BME280;53766;50.280;19.160;2023-04-06T04:31:05;98788.22;;;15.88;39.93
66857;BME280;53766;50.280;19.160;2023-04-06T04:33:33;98794.34;;;15.89;39.92
66857;BME280;53766;50.280;19.160;2023-04-06T04:36:00;98787.41;;;15.88;40.05
66857;BME280;53766;50.280;19.160;2023-04-06T04:38:28;98788.03;;;15.90;40.00
66857;BME280;53766;50.280;19.160;2023-04-06T04:40:56;98786.22;;;15.90;40.20
66857;BME280;53766;50.280;19.160;2023-04-06T04:43:24;98793.38;;;15.90;39.98
66857;BME280;53766;50.280;19.160;2023-04-06T04:45:51;98789.03;;;15.89;40.03
66857;BME280;53766;50.280;19.160;2023-04-06T04:48:20;98789.84;;;15.89;40.05
66857;BME280;53766;50.280;19.160;2023-04-06T04:50:47;98789.84;;;15.89;40.21
66857;BME280;53766;50.280;19.160;2023-04-06T04:53:15;98790.72;;;15.90;40.26
66857;BME280;53766;50.280;19.160;2023-04-06T04:55:42;98785.38;;;15.90;40.03
66857;BME280;53766;50.280;19.160;2023-04-06T04:58:10;98784.53;;;15.89;40.19
66857;BME280;53766;50.280;19.160;2023-04-06T05:00:41;98786.22;;;15.90;40.10
66857;BME280;53766;50.280;19.160;2023-04-06T05:03:09;98788.22;;;15.88;40.15
66857;BME280;53766;50.280;19.160;2023-04-06T05:05:41;98784.53;;;15.89;40.02
66857;BME280;53766;50.280;19.160;2023-04-06T05:08:08;98778.41;;;15.89;39.99
66857;BME280;53766;50.280;19.160;2023-04-06T05:10:35;98789.84;;;15.89;40.13
66857;BME280;53766;50.280;19.160;2023-04-06T05:13:03;98778.59;;;15.87;39.96
66857;BME280;53766;50.280;19.160;2023-04-06T05:15:32;98788.03;;;15.90;40.26
66857;BME280;53766;50.280;19.160;2023-04-06T05:18:02;98779.22;;;15.89;40.00
66857;BME280;53766;50.280;19.160;2023-04-06T05:20:30;98779.22;;;15.89;40.03
66857;BME280;53766;50.280;19.160;2023-04-06T05:22:57;98786.22;;;15.90;39.96
66857;BME280;53766;50.280;19.160;2023-04-06T05:25:25;98789.84;;;15.89;39.99
66857;BME280;53766;50.280;19.160;2023-04-06T05:27:53;98787.84;;;15.91;40.00
66857;BME280;53766;50.280;19.160;2023-04-06T05:30:20;98780.72;;;15.92;40.01
66857;BME280;53766;50.280;19.160;2023-04-06T05:32:48;98787.84;;;15.91;39.97
66857;BME280;53766;50.280;19.160;2023-04-06T05:35:15;98781.72;;;15.91;40.00
66857;BME280;53766;50.280;19.160;2023-04-06T05:37:44;98791.53;;;15.90;39.94
66857;BME280;53766;50.280;19.160;2023-04-06T05:40:11;98790.50;;;15.91;39.97
66857;BME280;53766;50.280;19.160;2023-04-06T05:42:41;98784.19;;;15.92;39.98
66857;BME280;53766;50.280;19.160;2023-04-06T05:45:10;98790.50;;;15.91;39.77
66857;BME280;53766;50.280;19.160;2023-04-06T05:47:38;98782.53;;;15.91;39.96
66857;BME280;53766;50.280;19.160;2023-04-06T05:50:06;98777.22;;;15.91;39.89
66857;BME280;53766;50.280;19.160;2023-04-06T05:52:33;98778.06;;;15.92;39.87
66857;BME280;53766;50.280;19.160;2023-04-06T05:55:01;98777.88;;;15.93;39.86
66857;BME280;53766;50.280;19.160;2023-04-06T05:57:29;98775.22;;;15.93;39.99
66857;BME280;53766;50.280;19.160;2023-04-06T05:59:56;98775.22;;;15.93;39.99
66857;BME280;53766;50.280;19.160;2023-04-06T06:02:24;98773.56;;;15.92;39.95
66857;BME280;53766;50.280;19.160;2023-04-06T06:04:51;98774.41;;;15.93;39.79
66857;BME280;53766;50.280;19.160;2023-04-06T06:07:19;98763.94;;;15.91;39.89
66857;BME280;53766;50.280;19.160;2023-04-06T06:09:46;98766.59;;;15.91;39.86
66857;BME280;53766;50.280;19.160;2023-04-06T06:12:14;98770.28;;;15.90;39.71
66857;BME280;53766;50.280;19.160;2023-04-06T06:14:41;98767.63;;;15.90;39.90
66857;BME280;53766;50.280;19.160;2023-04-06T06:17:09;98775.59;;;15.90;39.60
66857;BME280;53766;50.280;19.160;2023-04-06T06:19:37;98776.56;;;15.89;39.79
66857;BME280;53766;50.280;19.160;2023-04-06T06:22:04;98773.91;;;15.89;39.78
66857;BME280;53766;50.280;19.160;2023-04-06T06:24:33;98771.47;;;15.88;39.77
66857;BME280;53766;50.280;19.160;2023-04-06T06:27:00;98774.94;;;15.88;39.91
66857;BME280;53766;50.280;19.160;2023-04-06T06:29:27;98773.09;;;15.89;39.91
66857;BME280;53766;50.280;19.160;2023-04-06T06:31:55;98770.28;;;15.90;39.89
66857;BME280;53766;50.280;19.160;2023-04-06T06:34:22;98771.25;;;15.89;40.08
66857;BME280;53766;50.280;19.160;2023-04-06T06:36:50;98774.56;;;15.91;40.09
66857;BME280;53766;50.280;19.160;2023-04-06T06:39:19;98776.22;;;15.92;40.01
66857;BME280;53766;50.280;19.160;2023-04-06T06:41:46;98773.56;;;15.92;40.29
66857;BME280;53766;50.280;19.160;2023-04-06T06:44:14;98774.22;;;15.94;40.39
66857;BME280;53766;50.280;19.160;2023-04-06T06:46:41;98775.53;;;15.98;40.27
66857;BME280;53766;50.280;19.160;2023-04-06T06:49:09;98774.50;;;15.99;40.27
66857;BME280;53766;50.280;19.160;2023-04-06T06:51:40;98777.81;;;16.01;40.26
66857;BME280;53766;50.280;19.160;2023-04-06T06:54:07;98773.78;;;16.06;40.34
66857;BME280;53766;50.280;19.160;2023-04-06T06:56:35;98773.78;;;16.06;40.56
66857;BME280;53766;50.280;19.160;2023-04-06T06:59:05;98782.03;;;16.11;40.50
66857;BME280;53766;50.280;19.160;2023-04-06T07:01:33;98778.00;;;16.15;40.28
66857;BME280;53766;50.280;19.160;2023-04-06T07:04:02;98780.50;;;16.16;40.51
66857;BME280;53766;50.280;19.160;2023-04-06T07:06:30;98779.31;;;16.19;40.33
66857;BME280;53766;50.280;19.160;2023-04-06T07:08:57;98777.94;;;16.23;40.54
66857;BME280;53766;50.280;19.160;2023-04-06T07:11:25;98774.47;;;16.22;40.21
66857;BME280;53766;50.280;19.160;2023-04-06T07:13:54;98784.88;;;16.24;40.59
66857;BME280;53766;50.280;19.160;2023-04-06T07:16:22;98782.53;;;16.29;40.44
66857;BME280;53766;50.280;19.160;2023-04-06T07:18:49;98781.50;;;16.30;40.39
66857;BME280;53766;50.280;19.160;2023-04-06T07:21:17;98775.00;;;16.33;40.28
66857;BME280;53766;50.280;19.160;2023-04-06T07:23:44;98782.81;;;16.34;40.43
66857;BME280;53766;50.280;19.160;2023-04-06T07:26:13;98787.13;;;16.35;40.19
66857;BME280;53766;50.280;19.160;2023-04-06T07:28:41;98784.47;;;16.35;40.08
66857;BME280;53766;50.280;19.160;2023-04-06T07:31:09;98779.75;;;16.37;40.08
66857;BME280;53766;50.280;19.160;2023-04-06T07:33:36;98780.41;;;16.39;40.19
66857;BME280;53766;50.280;19.160;2023-04-06T07:36:04;98775.75;;;16.41;40.10
66857;BME280;53766;50.280;19.160;2023-04-06T07:38:31;98774.75;;;16.42;40.04
66857;BME280;53766;50.280;19.160;2023-04-06T07:40:59;98777.22;;;16.44;40.15
66857;BME280;53766;50.280;19.160;2023-04-06T07:43:27;98780.50;;;16.46;40.14
66857;BME280;53766;50.280;19.160;2023-04-06T07:45:54;98777.66;;;16.48;40.01
66857;BME280;53766;50.280;19.160;2023-04-06T07:48:24;98773.16;;;16.48;39.90
66857;BME280;53766;50.280;19.160;2023-04-06T07:51:00;98785.94;;;16.53;40.08
66857;BME280;53766;50.280;19.160;2023-04-06T07:53:28;98781.88;;;16.57;40.03
66857;BME280;53766;50.280;19.160;2023-04-06T07:55:57;98782.53;;;16.59;40.06
66857;BME280;53766;50.280;19.160;2023-04-06T07:58:24;98787.66;;;16.60;39.97
66857;BME280;53766;50.280;19.160;2023-04-06T08:00:52;98781.53;;;16.60;39.83
66857;BME280;53766;50.280;19.160;2023-04-06T08:03:21;98786.84;;;16.60;39.96
66857;BME280;53766;50.280;19.160;2023-04-06T08:05:53;98783.16;;;16.61;39.99
66857;BME280;53766;50.280;19.160;2023-04-06T08:08:20;98781.53;;;16.60;40.03
66857;BME280;53766;50.280;19.160;2023-04-06T08:10:48;98782.19;;;16.62;39.99
66857;BME280;53766;50.280;19.160;2023-04-06T08:13:15;98777.50;;;16.64;39.96
66857;BME280;53766;50.280;19.160;2023-04-06T08:15:44;98782.81;;;16.64;39.94
66857;BME280;53766;50.280;19.160;2023-04-06T08:18:11;98783.63;;;16.64;40.07
66857;BME280;53766;50.280;19.160;2023-04-06T08:20:40;98774.63;;;16.65;39.96
66857;BME280;53766;50.280;19.160;2023-04-06T08:23:07;98774.47;;;16.67;40.01
66857;BME280;53766;50.280;19.160;2023-04-06T08:25:36;98772.44;;;16.69;39.88
66857;BME280;53766;50.280;19.160;2023-04-06T08:28:04;98782.44;;;16.67;39.98
66857;BME280;53766;50.280;19.160;2023-04-06T08:30:32;98780.41;;;16.69;39.87
66857;BME280;53766;50.280;19.160;2023-04-06T08:32:59;98778.41;;;16.71;39.74
66857;BME280;53766;50.280;19.160;2023-04-06T08:35:27;98778.41;;;16.71;39.85
66857;BME280;53766;50.280;19.160;2023-04-06T08:37:55;98776.78;;;16.70;40.00
66857;BME280;53766;50.280;19.160;2023-04-06T08:40:24;98773.09;;;16.71;39.92
66857;BME280;53766;50.280;19.160;2023-04-06T08:42:55;98778.41;;;16.71;39.84
66857;BME280;53766;50.280;19.160;2023-04-06T08:45:23;98761.63;;;16.71;39.80
66857;BME280;53766;50.280;19.160;2023-04-06T08:47:51;98764.94;;;16.73;39.92
66857;BME280;53766;50.280;19.160;2023-04-06T08:50:22;98765.09;;;16.71;39.73
66857;BME280;53766;50.280;19.160;2023-04-06T08:52:51;98763.09;;;16.73;39.84
66857;BME280;53766;50.280;19.160;2023-04-06T08:55:18;98766.56;;;16.74;39.77
66857;BME280;53766;50.280;19.160;2023-04-06T08:57:46;98758.41;;;16.75;39.79
66857;BME280;53766;50.280;19.160;2023-04-06T09:00:15;98765.38;;;16.76;39.75
66857;BME280;53766;50.280;19.160;2023-04-06T09:02:45;98763.34;;;16.78;39.66
66857;BME280;53766;50.280;19.160;2023-04-06T09:05:13;98760.53;;;16.80;39.66
66857;BME280;53766;50.280;19.160;2023-04-06T09:07:42;98758.53;;;16.82;39.69
66857;BME280;53766;50.280;19.160;2023-04-06T09:10:09;98754.03;;;16.82;39.52
66857;BME280;53766;50.280;19.160;2023-04-06T09:12:37;98755.69;;;16.83;39.61
66857;BME280;53766;50.280;19.160;2023-04-06T09:15:05;98756.31;;;16.85;39.58
66857;BME280;53766;50.280;19.160;2023-04-06T09:17:33;98748.34;;;16.85;39.58
66857;BME280;53766;50.280;19.160;2023-04-06T09:20:02;98752.47;;;16.88;39.41
66857;BME280;53766;50.280;19.160;2023-04-06T09:22:37;98740.16;;;16.87;39.51
66857;BME280;53766;50.280;19.160;2023-04-06T09:25:05;98732.38;;;16.85;39.34
66857;BME280;53766;50.280;19.160;2023-04-06T09:27:35;98732.63;;;16.91;39.46
66857;BME280;53766;50.280;19.160;2023-04-06T09:30:10;98741.63;;;16.90;39.59
66857;BME280;53766;50.280;19.160;2023-04-06T09:32:59;98727.31;;;16.91;39.60
66857;BME280;53766;50.280;19.160;2023-04-06T09:35:27;98736.13;;;16.91;39.35
66857;BME280;53766;50.280;19.160;2023-04-06T09:37:57;98729.97;;;16.91;39.35
66857;BME280;53766;50.280;19.160;2023-04-06T09:40:24;98733.53;;;16.98;39.12
66857;BME280;53766;50.280;19.160;2023-04-06T09:42:52;98731.25;;;16.95;39.28
66857;BME280;53766;50.280;19.160;2023-04-06T09:45:20;98726.94;;;16.94;39.33
66857;BME280;53766;50.280;19.160;2023-04-06T09:47:49;98727.56;;;16.96;39.09
66857;BME280;53766;50.280;19.160;2023-04-06T09:50:19;98726.56;;;16.97;39.45
66857;BME280;53766;50.280;19.160;2023-04-06T09:52:48;98725.38;;;16.99;39.20
66857;BME280;53766;50.280;19.160;2023-04-06T09:55:30;98718.19;;;17.00;39.20
66857;BME280;53766;50.280;19.160;2023-04-06T09:58:04;98701.81;;;16.96;39.36
66857;BME280;53766;50.280;19.160;2023-04-06T10:00:42;98710.84;;;17.02;39.32
66857;BME280;53766;50.280;19.160;2023-04-06T10:05:52;98712.53;;;17.03;39.49
66857;BME280;53766;50.280;19.160;2023-04-06T10:08:24;98707.00;;;17.04;39.62
66857;BME280;53766;50.280;19.160;2023-04-06T10:10:59;98702.31;;;17.06;39.71
66857;BME280;53766;50.280;19.160;2023-04-06T10:13:27;98708.28;;;17.09;39.70
66857;BME280;53766;50.280;19.160;2023-04-06T10:15:56;98709.72;;;17.11;39.81
66857;BME280;53766;50.280;19.160;2023-04-06T10:18:24;98701.09;;;17.09;39.98
66857;BME280;53766;50.280;19.160;2023-04-06T10:21:00;98708.91;;;17.11;40.08
66857;BME280;53766;50.280;19.160;2023-04-06T10:23:37;98704.78;;;17.08;40.28
66857;BME280;53766;50.280;19.160;2023-04-06T10:26:13;98706.44;;;17.09;40.30
66857;BME280;53766;50.280;19.160;2023-04-06T10:28:42;98698.09;;;17.12;40.48
66857;BME280;53766;50.280;19.160;2023-04-06T10:31:10;98684.97;;;17.11;41.01
66857;BME280;53766;50.280;19.160;2023-04-06T10:33:37;98699.06;;;17.11;40.58
66857;BME280;53766;50.280;19.160;2023-04-06T10:36:13;98694.59;;;17.12;40.65
66857;BME280;53766;50.280;19.160;2023-04-06T10:38:42;98683.75;;;17.13;40.71
66857;BME280;53766;50.280;19.160;2023-04-06T10:41:11;98681.09;;;17.13;40.89
66857;BME280;53766;50.280;19.160;2023-04-06T10:43:40;98679.06;;;17.15;40.77
66857;BME280;53766;50.280;19.160;2023-04-06T10:46:09;98685.41;;;17.14;40.97
66857;BME280;53766;50.280;19.160;2023-04-06T10:48:39;98679.06;;;17.15;40.99
66857;BME280;53766;50.280;19.160;2023-04-06T10:51:12;98671.28;;;17.14;41.21
66857;BME280;53766;50.280;19.160;2023-04-06T10:53:45;98679.06;;;17.15;41.29
66857;BME280;53766;50.280;19.160;2023-04-06T10:56:16;98675.75;;;17.13;41.01
66857;BME280;53766;50.280;19.160;2023-04-06T10:58:45;98673.75;;;17.15;41.05
66857;BME280;53766;50.280;19.160;2023-04-06T11:01:17;98670.06;;;17.16;41.23
66857;BME280;53766;50.280;19.160;2023-04-06T11:03:53;98669.22;;;17.16;41.30
66857;BME280;53766;50.280;19.160;2023-04-06T11:06:30;98665.75;;;17.15;41.13
66857;BME280;53766;50.280;19.160;2023-04-06T11:09:00;98666.03;;;17.20;41.30
66857;BME280;53766;50.280;19.160;2023-04-06T11:11:28;98673.16;;;17.20;41.28
66857;BME280;53766;50.280;19.160;2023-04-06T11:13:58;98669.69;;;17.19;40.89
66857;BME280;53766;50.280;19.160;2023-04-06T11:16:27;98666.84;;;17.21;41.15
66857;BME280;53766;50.280;19.160;2023-04-06T11:18:57;98668.47;;;17.22;41.19
66857;BME280;53766;50.280;19.160;2023-04-06T11:21:36;98662.50;;;17.20;41.19
66857;BME280;53766;50.280;19.160;2023-04-06T11:24:14;98658.84;;;17.21;41.26
66857;BME280;53766;50.280;19.160;2023-04-06T11:26:47;98665.63;;;17.23;41.20
66857;BME280;53766;50.280;19.160;2023-04-06T11:29:17;98656.19;;;17.21;41.18
66857;BME280;53766;50.280;19.160;2023-04-06T11:31:46;98660.69;;;17.20;41.22
66857;BME280;53766;50.280;19.160;2023-04-06T11:34:18;98661.53;;;17.21;41.07
66857;BME280;53766;50.280;19.160;2023-04-06T11:36:48;98656.19;;;17.21;41.30
66857;BME280;53766;50.280;19.160;2023-04-06T11:39:21;98662.34;;;17.21;41.27
66857;BME280;53766;50.280;19.160;2023-04-06T11:41:50;98657.00;;;17.21;41.25
66857;BME280;53766;50.280;19.160;2023-04-06T11:44:50;98659.03;;;17.19;41.30
66857;BME280;53766;50.280;19.160;2023-04-06T11:47:20;98655.38;;;17.20;41.16
66857;BME280;53766;50.280;19.160;2023-04-06T11:49:54;98648.41;;;17.19;41.15
66857;BME280;53766;50.280;19.160;2023-04-06T11:52:27;98648.41;;;17.19;41.07
66857;BME280;53766;50.280;19.160;2023-04-06T11:54:54;98648.41;;;17.19;41.29
66857;BME280;53766;50.280;19.160;2023-04-06T11:57:24;98649.41;;;17.18;41.21
66857;BME280;53766;50.280;19.160;2023-04-06T11:59:52;98642.63;;;17.16;41.32
66857;BME280;53766;50.280;19.160;2023-04-06T12:02:21;98648.78;;;17.16;41.15
66857;BME280;53766;50.280;19.160;2023-04-06T12:04:48;98647.94;;;17.16;41.19
66857;BME280;53766;50.280;19.160;2023-04-06T12:07:16;98639.97;;;17.16;41.31
66857;BME280;53766;50.280;19.160;2023-04-06T12:09:43;98650.81;;;17.14;41.25
66857;BME280;53766;50.280;19.160;2023-04-06T12:12:11;98649.16;;;17.13;41.25
66857;BME280;53766;50.280;19.160;2023-04-06T12:14:38;98638.31;;;17.15;41.09
66857;BME280;53766;50.280;19.160;2023-04-06T12:17:06;98636.88;;;17.12;41.30
66857;BME280;53766;50.280;19.160;2023-04-06T12:19:34;98633.19;;;17.13;41.25
66857;BME280;53766;50.280;19.160;2023-04-06T12:22:01;98640.53;;;17.11;41.17
66857;BME280;53766;50.280;19.160;2023-04-06T12:24:29;98636.06;;;17.12;41.19
66857;BME280;53766;50.280;19.160;2023-04-06T12:26:57;98635.22;;;17.11;41.17
66857;BME280;53766;50.280;19.160;2023-04-06T12:29:37;98636.88;;;17.12;41.12
66857;BME280;53766;50.280;19.160;2023-04-06T12:32:05;98635.03;;;17.13;41.01
66857;BME280;53766;50.280;19.160;2023-04-06T12:34:33;98626.22;;;17.12;41.10
66857;BME280;53766;50.280;19.160;2023-04-06T12:37:03;98630.34;;;17.15;41.13
66857;BME280;53766;50.280;19.160;2023-04-06T12:39:31;98623.38;;;17.14;41.08
66857;BME280;53766;50.280;19.160;2023-04-06T12:41:58;98618.88;;;17.14;41.05
66857;BME280;53766;50.280;19.160;2023-04-06T12:44:27;98623.81;;;17.17;40.97
66857;BME280;53766;50.280;19.160;2023-04-06T12:46:54;98618.47;;;17.17;40.81
66857;BME280;53766;50.280;19.160;2023-04-06T12:49:22;98619.50;;;17.16;40.95
66857;BME280;53766;50.280;19.160;2023-04-06T12:51:50;98623.16;;;17.15;41.06
66857;BME280;53766;50.280;19.160;2023-04-06T12:54:17;98624.19;;;17.14;41.07
66857;BME280;53766;50.280;19.160;2023-04-06T12:56:45;98613.56;;;17.14;40.96
66857;BME280;53766;50.280;19.160;2023-04-06T12:59:13;98624.19;;;17.14;40.87
66857;BME280;53766;50.280;19.160;2023-04-06T13:01:40;98621.53;;;17.14;41.04